UAL1146 KDEN-KCPR
Flight info
| Callsign | UAL1146 |
|---|---|
| Flight time | 0h 40m |
| Altitude | 36000 |
| Route | XXWNG1 XXWNG DDY |
| Aircraft | B738/M-SDE2E3FGHIRWXY/LB1 |
Departure
| Time | 2026-04-18 11:02 |
|---|---|
| Airport | Denver International Airport (KDEN) |
Arrival
| Time | 2026-04-18 11:42 |
|---|---|
| Airport | Casper-Natrona County International Airport (KCPR) |
| Time | Latitude | Longitude | Altitude | Speed | Heading |
|---|---|---|---|---|---|
| 2026-04-18 10:36 | 39.85801 | -104.67626 | 5365 ft | 0 kts | 359° |
| 2026-04-18 10:52 | 39.85792 | -104.67626 | 5365 ft | 2 kts | 2° |
| 2026-04-18 10:52 | 39.85775 | -104.67628 | 5363 ft | 2 kts | 6° |
| 2026-04-18 10:53 | 39.85759 | -104.67631 | 5363 ft | 2 kts | 16° |
| 2026-04-18 10:53 | 39.85744 | -104.67640 | 5364 ft | 2 kts | 47° |
| 2026-04-18 10:53 | 39.85737 | -104.67657 | 5362 ft | 1 kts | 89° |
| 2026-04-18 10:53 | 39.85737 | -104.67660 | 5362 ft | 0 kts | 90° |
| 2026-04-18 10:55 | 39.85737 | -104.67628 | 5363 ft | 9 kts | 91° |
| 2026-04-18 10:56 | 39.85736 | -104.67499 | 5365 ft | 18 kts | 90° |
| 2026-04-18 10:56 | 39.85735 | -104.67330 | 5365 ft | 18 kts | 90° |
| 2026-04-18 10:56 | 39.85733 | -104.67165 | 5365 ft | 18 kts | 91° |
| 2026-04-18 10:56 | 39.85731 | -104.67007 | 5365 ft | 17 kts | 91° |
| 2026-04-18 10:57 | 39.85727 | -104.66872 | 5365 ft | 12 kts | 99° |
| 2026-04-18 10:57 | 39.85675 | -104.66797 | 5365 ft | 11 kts | 129° |
| 2026-04-18 10:57 | 39.85660 | -104.66699 | 5365 ft | 11 kts | 90° |
| 2026-04-18 10:57 | 39.85659 | -104.66599 | 5361 ft | 11 kts | 88° |
| 2026-04-18 10:58 | 39.85679 | -104.66506 | 5363 ft | 11 kts | 86° |
| 2026-04-18 10:58 | 39.85679 | -104.66412 | 5365 ft | 10 kts | 90° |
| 2026-04-18 10:58 | 39.85678 | -104.66321 | 5364 ft | 10 kts | 91° |
| 2026-04-18 10:58 | 39.85702 | -104.66241 | 5365 ft | 12 kts | 28° |
| 2026-04-18 10:59 | 39.85813 | -104.66230 | 5364 ft | 19 kts | 0° |
| 2026-04-18 10:59 | 39.85944 | -104.66229 | 5365 ft | 19 kts | 0° |
| 2026-04-18 10:59 | 39.86045 | -104.66229 | 5365 ft | 10 kts | 0° |
| 2026-04-18 10:59 | 39.86100 | -104.66198 | 5364 ft | 9 kts | 59° |
| 2026-04-18 11:00 | 39.86106 | -104.66119 | 5365 ft | 9 kts | 90° |
| 2026-04-18 11:00 | 39.86100 | -104.66041 | 5364 ft | 9 kts | 119° |
| 2026-04-18 11:00 | 39.86044 | -104.66015 | 5363 ft | 9 kts | 180° |
| 2026-04-18 11:00 | 39.85977 | -104.66016 | 5364 ft | 15 kts | 180° |
| 2026-04-18 11:01 | 39.85701 | -104.66019 | 5365 ft | 73 kts | 180° |
| 2026-04-18 11:01 | 39.84964 | -104.66027 | 5362 ft | 135 kts | 180° |
| 2026-04-18 11:01 | 39.83866 | -104.66040 | 5550 ft | 168 kts | 181° |
| 2026-04-18 11:02 | 39.81486 | -104.66031 | 6990 ft | 186 kts | 184° |
| 2026-04-18 11:02 | 39.80146 | -104.66007 | 7638 ft | 194 kts | 184° |
| 2026-04-18 11:02 | 39.78769 | -104.65654 | 8117 ft | 221 kts | 152° |
| 2026-04-18 11:02 | 39.77713 | -104.64100 | 8349 ft | 245 kts | 111° |
| 2026-04-18 11:03 | 39.77579 | -104.61843 | 8556 ft | 262 kts | 72° |
| 2026-04-18 11:03 | 39.78503 | -104.59851 | 8919 ft | 268 kts | 37° |
| 2026-04-18 11:03 | 39.80191 | -104.58833 | 9275 ft | 272 kts | 1° |
| 2026-04-18 11:03 | 39.82064 | -104.59035 | 10143 ft | 269 kts | 341° |
| 2026-04-18 11:04 | 39.83881 | -104.59816 | 10685 ft | 286 kts | 342° |
| 2026-04-18 11:04 | 39.85927 | -104.60406 | 10897 ft | 313 kts | 346° |
| 2026-04-18 11:04 | 39.88130 | -104.60932 | 11134 ft | 336 kts | 347° |
| 2026-04-18 11:04 | 39.90474 | -104.61476 | 11733 ft | 346 kts | 347° |
| 2026-04-18 11:05 | 39.92857 | -104.62043 | 12554 ft | 349 kts | 346° |
| 2026-04-18 11:05 | 39.95246 | -104.62630 | 13425 ft | 351 kts | 346° |
| 2026-04-18 11:05 | 39.97652 | -104.63239 | 14239 ft | 354 kts | 346° |
| 2026-04-18 11:05 | 40.00088 | -104.63870 | 14949 ft | 357 kts | 345° |
| 2026-04-18 11:06 | 40.02536 | -104.64512 | 15679 ft | 361 kts | 345° |
| 2026-04-18 11:06 | 40.05005 | -104.65166 | 16408 ft | 364 kts | 344° |
| 2026-04-18 11:06 | 40.07501 | -104.65830 | 17134 ft | 367 kts | 344° |
| 2026-04-18 11:06 | 40.09986 | -104.66494 | 17835 ft | 371 kts | 344° |
| 2026-04-18 11:07 | 40.12525 | -104.67174 | 18531 ft | 374 kts | 343° |
| 2026-04-18 11:07 | 40.15088 | -104.67861 | 19131 ft | 378 kts | 343° |
| 2026-04-18 11:07 | 40.17675 | -104.68555 | 19750 ft | 380 kts | 343° |
| 2026-04-18 11:07 | 40.20273 | -104.69252 | 20352 ft | 383 kts | 343° |
| 2026-04-18 11:08 | 40.22892 | -104.69955 | 20936 ft | 385 kts | 343° |
| 2026-04-18 11:08 | 40.25526 | -104.70663 | 21497 ft | 389 kts | 343° |
| 2026-04-18 11:08 | 40.28187 | -104.71380 | 22058 ft | 392 kts | 343° |
| 2026-04-18 11:08 | 40.30864 | -104.72101 | 22614 ft | 395 kts | 343° |
| 2026-04-18 11:09 | 40.33570 | -104.72831 | 23155 ft | 397 kts | 343° |
| 2026-04-18 11:09 | 40.36293 | -104.73565 | 23689 ft | 400 kts | 343° |
| 2026-04-18 11:09 | 40.39032 | -104.74305 | 24103 ft | 403 kts | 343° |
| 2026-04-18 11:09 | 40.41795 | -104.75052 | 24482 ft | 407 kts | 343° |
| 2026-04-18 11:10 | 40.44545 | -104.75796 | 24856 ft | 410 kts | 343° |
| 2026-04-18 11:10 | 40.47384 | -104.76565 | 25230 ft | 413 kts | 343° |
| 2026-04-18 11:10 | 40.50179 | -104.77322 | 25583 ft | 417 kts | 343° |
| 2026-04-18 11:10 | 40.53037 | -104.78097 | 25955 ft | 420 kts | 343° |
| 2026-04-18 11:11 | 40.55907 | -104.78877 | 26308 ft | 423 kts | 343° |
| 2026-04-18 11:11 | 40.58802 | -104.79663 | 26656 ft | 426 kts | 343° |
| 2026-04-18 11:11 | 40.61715 | -104.80455 | 26987 ft | 429 kts | 343° |
| 2026-04-18 11:11 | 40.64649 | -104.81253 | 27319 ft | 431 kts | 343° |
| 2026-04-18 11:12 | 40.67561 | -104.82046 | 27637 ft | 434 kts | 343° |
| 2026-04-18 11:12 | 40.70529 | -104.82855 | 27947 ft | 436 kts | 343° |
| 2026-04-18 11:12 | 40.73516 | -104.83670 | 28252 ft | 439 kts | 343° |
| 2026-04-18 11:12 | 40.76506 | -104.84524 | 28591 ft | 438 kts | 340° |
| 2026-04-18 11:13 | 40.79386 | -104.85783 | 29048 ft | 432 kts | 333° |
| 2026-04-18 11:13 | 40.82048 | -104.87555 | 29530 ft | 426 kts | 326° |
| 2026-04-18 11:13 | 40.84617 | -104.89501 | 29981 ft | 425 kts | 326° |
| 2026-04-18 11:13 | 40.87181 | -104.91456 | 30362 ft | 425 kts | 326° |
| 2026-04-18 11:14 | 40.89747 | -104.93407 | 30693 ft | 425 kts | 326° |
| 2026-04-18 11:14 | 40.92309 | -104.95346 | 31030 ft | 425 kts | 326° |
| 2026-04-18 11:14 | 40.94878 | -104.97282 | 31319 ft | 426 kts | 326° |
| 2026-04-18 11:14 | 40.97431 | -104.99200 | 31627 ft | 426 kts | 326° |
| 2026-04-18 11:15 | 41.00006 | -105.01133 | 31957 ft | 426 kts | 326° |
| 2026-04-18 11:15 | 41.02604 | -105.03084 | 32279 ft | 426 kts | 326° |
| 2026-04-18 11:15 | 41.05178 | -105.05017 | 32585 ft | 426 kts | 326° |
| 2026-04-18 11:15 | 41.07757 | -105.06957 | 32893 ft | 426 kts | 326° |
| 2026-04-18 11:16 | 41.10341 | -105.08902 | 33200 ft | 426 kts | 326° |
| 2026-04-18 11:16 | 41.12916 | -105.10842 | 33534 ft | 426 kts | 325° |
| 2026-04-18 11:16 | 41.15498 | -105.12789 | 33859 ft | 426 kts | 325° |
| 2026-04-18 11:16 | 41.18038 | -105.14706 | 34171 ft | 426 kts | 325° |
| 2026-04-18 11:17 | 41.23227 | -105.18632 | 34244 ft | 431 kts | 325° |
| 2026-04-18 11:17 | 41.28425 | -105.22566 | 34256 ft | 425 kts | 325° |
| 2026-04-18 11:18 | 41.33549 | -105.26453 | 34255 ft | 422 kts | 325° |
| 2026-04-18 11:18 | 41.38649 | -105.30333 | 34248 ft | 422 kts | 325° |
| 2026-04-18 11:19 | 41.43742 | -105.34212 | 34249 ft | 421 kts | 325° |
| 2026-04-18 11:19 | 41.48913 | -105.37837 | 34244 ft | 425 kts | 332° |
| 2026-04-18 11:20 | 41.54401 | -105.40827 | 34250 ft | 426 kts | 333° |
| 2026-04-18 11:20 | 41.59912 | -105.43792 | 34259 ft | 426 kts | 333° |
| 2026-04-18 11:21 | 41.65420 | -105.46788 | 34268 ft | 427 kts | 333° |
| 2026-04-18 11:21 | 41.70917 | -105.49805 | 34269 ft | 427 kts | 333° |
| 2026-04-18 11:22 | 41.76389 | -105.52820 | 34281 ft | 428 kts | 333° |
| 2026-04-18 11:22 | 41.81916 | -105.55872 | 34274 ft | 429 kts | 333° |
| 2026-04-18 11:23 | 41.87441 | -105.58927 | 34277 ft | 429 kts | 333° |
| 2026-04-18 11:23 | 41.92970 | -105.61990 | 34277 ft | 430 kts | 333° |
| 2026-04-18 11:24 | 41.98503 | -105.65061 | 34282 ft | 430 kts | 333° |
| 2026-04-18 11:24 | 42.04019 | -105.68018 | 34272 ft | 423 kts | 336° |
| 2026-04-18 11:25 | 42.06741 | -105.69280 | 34251 ft | 400 kts | 336° |
| 2026-04-18 11:25 | 42.09375 | -105.70459 | 33046 ft | 404 kts | 337° |
| 2026-04-18 11:25 | 42.12020 | -105.71646 | 31858 ft | 408 kts | 338° |
| 2026-04-18 11:25 | 42.14722 | -105.72869 | 30655 ft | 410 kts | 338° |
| 2026-04-18 11:26 | 42.17435 | -105.74107 | 29281 ft | 410 kts | 338° |
| 2026-04-18 11:26 | 42.20132 | -105.75347 | 27894 ft | 409 kts | 338° |
| 2026-04-18 11:26 | 42.22822 | -105.76591 | 26571 ft | 406 kts | 339° |
| 2026-04-18 11:26 | 42.25484 | -105.77826 | 25317 ft | 403 kts | 339° |
| 2026-04-18 11:27 | 42.28126 | -105.79056 | 24102 ft | 400 kts | 339° |
| 2026-04-18 11:27 | 42.30748 | -105.80277 | 23083 ft | 391 kts | 339° |
| 2026-04-18 11:27 | 42.33256 | -105.81444 | 22474 ft | 373 kts | 339° |
| 2026-04-18 11:27 | 42.35627 | -105.82548 | 21939 ft | 357 kts | 339° |
| 2026-04-18 11:28 | 42.37927 | -105.83621 | 21426 ft | 345 kts | 339° |
| 2026-04-18 11:28 | 42.40199 | -105.84685 | 20897 ft | 342 kts | 339° |
| 2026-04-18 11:28 | 42.42440 | -105.85734 | 20391 ft | 339 kts | 338° |
| 2026-04-18 11:28 | 42.44658 | -105.86774 | 19893 ft | 336 kts | 338° |
| 2026-04-18 11:29 | 42.46870 | -105.87811 | 19397 ft | 334 kts | 338° |
| 2026-04-18 11:29 | 42.49030 | -105.88825 | 18918 ft | 332 kts | 338° |
| 2026-04-18 11:29 | 42.51208 | -105.89847 | 18392 ft | 330 kts | 338° |
| 2026-04-18 11:29 | 42.53373 | -105.90863 | 17866 ft | 328 kts | 338° |
| 2026-04-18 11:30 | 42.55528 | -105.91876 | 17366 ft | 327 kts | 338° |
| 2026-04-18 11:30 | 42.57675 | -105.92887 | 16738 ft | 327 kts | 338° |
| 2026-04-18 11:30 | 42.59822 | -105.93898 | 16233 ft | 325 kts | 338° |
| 2026-04-18 11:30 | 42.61955 | -105.94902 | 15734 ft | 323 kts | 338° |
| 2026-04-18 11:31 | 42.64072 | -105.95899 | 15250 ft | 320 kts | 338° |
| 2026-04-18 11:31 | 42.66183 | -105.96896 | 14500 ft | 323 kts | 338° |
| 2026-04-18 11:31 | 42.68278 | -105.97884 | 13900 ft | 314 kts | 338° |
| 2026-04-18 11:31 | 42.70307 | -105.98842 | 13400 ft | 311 kts | 338° |
| 2026-04-18 11:32 | 42.72348 | -105.99806 | 12923 ft | 310 kts | 338° |
| 2026-04-18 11:32 | 42.74382 | -106.00769 | 12465 ft | 308 kts | 338° |
| 2026-04-18 11:32 | 42.76397 | -106.01722 | 12017 ft | 305 kts | 338° |
| 2026-04-18 11:32 | 42.78387 | -106.02688 | 11581 ft | 302 kts | 335° |
| 2026-04-18 11:33 | 42.80236 | -106.04000 | 11146 ft | 297 kts | 325° |
| 2026-04-18 11:33 | 42.81928 | -106.05591 | 10809 ft | 292 kts | 323° |
| 2026-04-18 11:33 | 42.83560 | -106.07159 | 10696 ft | 283 kts | 323° |
| 2026-04-18 11:33 | 42.85159 | -106.08698 | 10553 ft | 279 kts | 323° |
| 2026-04-18 11:34 | 42.86741 | -106.10215 | 10434 ft | 277 kts | 323° |
| 2026-04-18 11:34 | 42.88304 | -106.11712 | 10252 ft | 270 kts | 323° |
| 2026-04-18 11:34 | 42.89816 | -106.13156 | 10122 ft | 261 kts | 323° |
| 2026-04-18 11:34 | 42.91275 | -106.14548 | 9976 ft | 252 kts | 323° |
| 2026-04-18 11:35 | 42.92666 | -106.15874 | 9905 ft | 242 kts | 323° |
| 2026-04-18 11:35 | 42.94019 | -106.17165 | 9831 ft | 232 kts | 323° |
| 2026-04-18 11:35 | 42.95326 | -106.18412 | 9734 ft | 228 kts | 323° |
| 2026-04-18 11:35 | 42.96615 | -106.19643 | 9642 ft | 222 kts | 323° |
| 2026-04-18 11:36 | 42.97849 | -106.20821 | 9546 ft | 213 kts | 323° |
| 2026-04-18 11:36 | 42.99057 | -106.21976 | 9466 ft | 214 kts | 323° |
| 2026-04-18 11:36 | 43.00265 | -106.23130 | 9405 ft | 209 kts | 323° |
| 2026-04-18 11:36 | 43.01436 | -106.24248 | 9147 ft | 203 kts | 322° |
| 2026-04-18 11:37 | 43.02492 | -106.25375 | 9064 ft | 183 kts | 307° |
| 2026-04-18 11:37 | 43.03027 | -106.26881 | 8779 ft | 175 kts | 284° |
| 2026-04-18 11:37 | 43.03088 | -106.27994 | 8427 ft | 181 kts | 268° |
| 2026-04-18 11:37 | 43.02497 | -106.30135 | 8077 ft | 188 kts | 237° |
| 2026-04-18 11:38 | 43.01563 | -106.31421 | 8056 ft | 191 kts | 230° |
| 2026-04-18 11:38 | 43.00928 | -106.32285 | 7959 ft | 191 kts | 232° |
| 2026-04-18 11:38 | 42.99667 | -106.34008 | 7608 ft | 193 kts | 230° |
| 2026-04-18 11:38 | 42.99016 | -106.34862 | 7438 ft | 190 kts | 229° |
| 2026-04-18 11:39 | 42.98071 | -106.36094 | 7175 ft | 185 kts | 229° |
| 2026-04-18 11:39 | 42.97169 | -106.37268 | 6947 ft | 179 kts | 229° |
| 2026-04-18 11:39 | 42.96281 | -106.38426 | 6714 ft | 173 kts | 229° |
| 2026-04-18 11:39 | 42.95443 | -106.39517 | 6480 ft | 158 kts | 229° |
| 2026-04-18 11:40 | 42.94679 | -106.40515 | 6243 ft | 151 kts | 227° |
| 2026-04-18 11:40 | 42.93923 | -106.41502 | 6066 ft | 152 kts | 226° |
| 2026-04-18 11:40 | 42.93155 | -106.42503 | 5882 ft | 153 kts | 226° |
| 2026-04-18 11:40 | 42.92387 | -106.43505 | 5671 ft | 153 kts | 226° |
| 2026-04-18 11:41 | 42.91627 | -106.44520 | 5455 ft | 152 kts | 225° |
| 2026-04-18 11:41 | 42.90878 | -106.45492 | 5337 ft | 139 kts | 223° |
| 2026-04-18 11:41 | 42.90286 | -106.46264 | 5337 ft | 96 kts | 224° |
| 2026-04-18 11:41 | 42.89873 | -106.46801 | 5340 ft | 53 kts | 224° |
| 2026-04-18 11:42 | 42.89729 | -106.46941 | 5339 ft | 19 kts | 182° |
| 2026-04-18 11:42 | 42.89627 | -106.46929 | 5339 ft | 12 kts | 146° |
| 2026-04-18 11:42 | 42.89635 | -106.46839 | 5336 ft | 8 kts | 45° |
| 2026-04-18 11:42 | 42.89673 | -106.46788 | 5338 ft | 7 kts | 44° |
| 2026-04-18 11:43 | 42.89706 | -106.46745 | 5336 ft | 6 kts | 44° |
| 2026-04-18 11:43 | 42.89735 | -106.46706 | 5337 ft | 6 kts | 44° |
| 2026-04-18 11:43 | 42.89763 | -106.46669 | 5336 ft | 6 kts | 44° |
| 2026-04-18 11:43 | 42.89794 | -106.46628 | 5339 ft | 8 kts | 44° |
| 2026-04-18 11:44 | 42.89806 | -106.46568 | 5337 ft | 7 kts | 137° |
| 2026-04-18 11:44 | 42.89767 | -106.46547 | 5339 ft | 4 kts | 154° |
| 2026-04-18 11:44 | 42.89761 | -106.46543 | 5337 ft | 0 kts | 155° |